Time;durP1;ratioP1;P1;durP2;ratioP2;P2;SDS_P1;SDS_P2;PMS_P1;PMS_P2;Temp;Humidity;BMP_temperature;BMP_pressure;BME280_temperature;BME280_humidity;BME280_pressure;Samples;Min_cycle;Max_cycle;Signal;HPM_P1;HPM_P2
2021/01/02 00:02:32;;;;;;;22.57;15.07;;;5.00;99.90;;;;;;4959104;28;20489;-78
2021/01/02 00:05:06;;;;;;;24.93;14.00;;;5.00;99.90;;;;;;4956649;28;20488;-80
2021/01/02 00:08:12;;;;;;;23.00;14.40;;;5.00;99.90;;;;;;4957689;28;20469;-80
2021/01/02 00:10:47;;;;;;;22.23;15.10;;;4.90;99.90;;;;;;4958083;28;20480;-80
2021/01/02 00:13:29;;;;;;;25.20;15.37;;;4.90;99.90;;;;;;4957114;28;20530;-80
2021/01/02 00:16:16;;;;;;;23.17;16.40;;;5.10;99.90;;;;;;4955937;28;20460;-79
2021/01/02 00:19:01;;;;;;;21.17;16.00;;;5.20;99.90;;;;;;4954949;28;20453;-79
2021/01/02 00:21:28;;;;;;;23.50;16.07;;;5.20;99.90;;;;;;4954519;28;20449;-81
2021/01/02 00:24:18;;;;;;;23.53;16.73;;;5.20;99.90;;;;;;4960823;28;20464;-79
2021/01/02 00:26:46;;;;;;;22.37;14.67;;;5.00;99.90;;;;;;4959156;28;20480;-80
2021/01/02 00:29:21;;;;;;;24.27;15.80;;;4.90;99.90;;;;;;4957231;28;20461;-81
2021/01/02 00:32:08;;;;;;;23.53;16.70;;;4.90;99.90;;;;;;4954322;28;20460;-80
2021/01/02 00:34:42;;;;;;;24.67;16.03;;;4.90;99.90;;;;;;4957377;28;20444;-79
2021/01/02 00:37:08;;;;;;;28.03;16.87;;;4.90;99.90;;;;;;4961529;28;21105;-81
2021/01/02 00:40:02;;;;;;;24.20;16.40;;;4.80;99.90;;;;;;4957657;28;20560;-78
2021/01/02 00:42:28;;;;;;;22.17;16.03;;;4.90;99.90;;;;;;4959079;28;20479;-77
2021/01/02 00:44:58;;;;;;;22.80;14.63;;;4.90;99.90;;;;;;4960686;28;20469;-79
2021/01/02 00:47:27;;;;;;;25.97;16.17;;;5.00;99.90;;;;;;4952573;28;20481;-81
2021/01/02 00:49:58;;;;;;;25.80;16.20;;;5.10;99.90;;;;;;4958862;28;20496;-80
2021/01/02 00:52:44;;;;;;;20.40;15.57;;;5.10;99.90;;;;;;4955032;28;20480;-80
2021/01/02 00:55:46;;;;;;;22.90;15.30;;;5.10;99.90;;;;;;4958032;28;20573;-80
2021/01/02 00:58:33;;;;;;;23.73;15.50;;;5.10;99.90;;;;;;4951095;28;20928;-80
2021/01/02 01:01:03;;;;;;;28.30;16.47;;;5.10;99.90;;;;;;4956159;28;21035;-80
2021/01/02 01:03:58;;;;;;;22.50;15.43;;;5.10;99.90;;;;;;4955067;28;20857;-78
2021/01/02 01:06:28;;;;;;;23.17;15.70;;;5.00;99.90;;;;;;4965642;28;20514;-76
2021/01/02 01:09:04;;;;;;;22.77;15.97;;;5.00;99.90;;;;;;4954296;28;20461;-79
2021/01/02 01:11:36;;;;;;;26.27;16.37;;;5.00;99.90;;;;;;4954353;28;20960;-79
2021/01/02 01:14:04;;;;;;;21.93;14.97;;;5.10;99.90;;;;;;4948218;28;20473;-80
2021/01/02 01:16:43;;;;;;;22.83;13.97;;;5.10;99.90;;;;;;4942896;28;20835;-79
2021/01/02 01:19:15;;;;;;;24.00;14.20;;;5.00;99.90;;;;;;4955270;28;20484;-77
2021/01/02 01:21:44;;;;;;;21.93;15.50;;;5.00;99.90;;;;;;4959130;28;20460;-79
2021/01/02 01:24:30;;;;;;;20.90;16.07;;;5.10;99.90;;;;;;4960244;28;20495;-78
2021/01/02 01:27:11;;;;;;;23.57;17.13;;;5.10;99.90;;;;;;4959412;28;20479;-78
2021/01/02 01:29:47;;;;;;;24.90;15.90;;;5.20;99.90;;;;;;4960212;28;20436;-79
2021/01/02 01:32:20;;;;;;;21.27;14.77;;;5.20;99.90;;;;;;4955155;28;20484;-79
2021/01/02 01:34:48;;;;;;;20.33;14.97;;;5.00;99.90;;;;;;4954767;28;20479;-78
2021/01/02 01:37:17;;;;;;;23.33;16.40;;;5.00;99.90;;;;;;4953836;28;20812;-79
2021/01/02 01:39:51;;;;;;;18.93;14.30;;;5.00;99.90;;;;;;4953510;28;20464;-81
2021/01/02 01:42:57;;;;;;;22.17;15.50;;;5.00;99.90;;;;;;4950280;28;20484;-81
2021/01/02 01:45:38;;;;;;;22.10;14.07;;;5.00;99.90;;;;;;4952353;28;20464;-79
2021/01/02 01:48:05;;;;;;;23.47;15.47;;;5.00;99.90;;;;;;4956961;28;20549;-78
2021/01/02 01:50:50;;;;;;;22.27;15.17;;;4.80;99.90;;;;;;4958996;28;20469;-79
2021/01/02 01:53:39;;;;;;;21.50;14.10;;;4.80;99.90;;;;;;4957314;28;20511;-80
2021/01/02 01:56:17;;;;;;;21.43;14.50;;;5.00;99.90;;;;;;4953224;28;20444;-79
2021/01/02 01:58:52;;;;;;;22.23;14.27;;;5.00;99.90;;;;;;4953993;28;20503;-78
2021/01/02 02:01:26;;;;;;;21.57;13.63;;;5.00;99.90;;;;;;4953902;28;20895;-80
2021/01/02 02:04:37;;;;;;;20.63;14.03;;;4.90;99.90;;;;;;4950225;28;20469;-79
2021/01/02 02:07:15;;;;;;;20.30;12.53;;;4.90;99.90;;;;;;4949568;28;20530;-81
2021/01/02 02:09:44;;;;;;;23.70;14.13;;;4.80;99.90;;;;;;4952288;28;20800;-81
2021/01/02 02:12:21;;;;;;;18.80;13.30;;;4.70;99.90;;;;;;4943693;28;20501;-81
2021/01/02 02:15:05;;;;;;;19.40;13.00;;;4.80;99.90;;;;;;4949261;28;20460;-82
2021/01/02 02:17:41;;;;;;;30.27;14.50;;;4.80;99.90;;;;;;4950731;28;20496;-79
2021/01/02 02:20:14;;;;;;;16.17;13.80;;;4.50;99.90;;;;;;4948268;28;20771;-79
2021/01/02 02:22:41;;;;;;;24.47;14.20;;;4.70;99.90;;;;;;4949696;28;20487;-80
2021/01/02 02:25:12;;;;;;;19.40;13.40;;;4.90;99.90;;;;;;4949278;28;20461;-81
2021/01/02 02:27:41;;;;;;;25.53;14.30;;;4.90;99.90;;;;;;4950778;28;20588;-79
2021/01/02 02:30:16;;;;;;;21.40;13.83;;;5.00;99.90;;;;;;4949409;28;20837;-79
2021/01/02 02:32:48;;;;;;;19.27;13.10;;;4.90;99.90;;;;;;4948554;28;20851;-79
2021/01/02 02:35:20;;;;;;;23.80;15.70;;;4.90;99.90;;;;;;4943405;28;20807;-78
2021/01/02 02:37:52;;;;;;;21.13;13.87;;;4.80;99.90;;;;;;4954328;28;20453;-79
2021/01/02 02:40:21;;;;;;;22.97;14.50;;;4.70;99.90;;;;;;4955727;28;20460;-79
2021/01/02 02:42:54;;;;;;;21.77;15.17;;;4.60;99.90;;;;;;4954479;28;20865;-80
2021/01/02 02:45:23;;;;;;;22.63;14.27;;;4.60;99.90;;;;;;4954152;28;20838;-78
2021/01/02 02:47:57;;;;;;;19.97;13.10;;;4.70;99.90;;;;;;4955588;28;21169;-78
2021/01/02 02:50:27;;;;;;;21.00;13.40;;;4.80;99.90;;;;;;4958286;28;20496;-79
2021/01/02 02:53:06;;;;;;;20.97;13.00;;;4.70;99.90;;;;;;4957574;28;20468;-79
2021/01/02 02:55:42;;;;;;;18.40;12.40;;;4.70;99.90;;;;;;4957168;28;20448;-80
2021/01/02 02:58:10;;;;;;;17.03;12.00;;;4.90;99.90;;;;;;4960405;28;20540;-78
2021/01/02 03:00:38;;;;;;;19.13;13.57;;;4.80;99.90;;;;;;4957391;28;20474;-78
2021/01/02 03:03:10;;;;;;;20.20;12.87;;;4.80;99.90;;;;;;4955066;28;20535;-81
2021/01/02 03:05:39;;;;;;;20.03;13.50;;;5.00;99.90;;;;;;4956479;28;20472;-81
2021/01/02 03:08:07;;;;;;;20.30;13.40;;;4.90;99.90;;;;;;4959638;28;20540;-79
2021/01/02 03:10:33;;;;;;;17.07;12.23;;;4.90;99.90;;;;;;4961692;28;20452;-80
2021/01/02 03:13:00;;;;;;;18.23;12.20;;;4.90;99.90;;;;;;4958967;28;20491;-81
2021/01/02 03:15:26;;;;;;;19.90;13.43;;;4.70;99.90;;;;;;4952860;28;20449;-81
2021/01/02 03:17:54;;;;;;;22.43;13.50;;;4.80;99.90;;;;;;4955095;28;20464;-81
2021/01/02 03:20:20;;;;;;;21.83;15.00;;;4.90;99.90;;;;;;4947060;28;20488;-79
2021/01/02 03:22:48;;;;;;;21.60;13.90;;;4.80;99.90;;;;;;4952866;28;20947;-80
2021/01/02 03:25:16;;;;;;;16.97;12.40;;;4.90;99.90;;;;;;4957972;28;20843;-78
2021/01/02 03:27:43;;;;;;;20.47;13.27;;;4.90;99.90;;;;;;4957738;28;20550;-79
2021/01/02 03:30:14;;;;;;;19.67;14.20;;;4.90;99.90;;;;;;4954435;28;20449;-79
2021/01/02 03:32:41;;;;;;;24.17;12.83;;;5.00;99.90;;;;;;4952645;28;20931;-80
2021/01/02 03:35:09;;;;;;;19.03;12.70;;;5.10;99.90;;;;;;4954214;28;20459;-79
2021/01/02 03:37:37;;;;;;;21.97;14.37;;;5.10;99.90;;;;;;4964492;28;20463;-79
2021/01/02 03:40:05;;;;;;;19.90;12.97;;;5.10;99.90;;;;;;4963164;28;20951;-80
2021/01/02 03:42:38;;;;;;;22.57;14.07;;;5.00;99.90;;;;;;4959340;28;20485;-81
2021/01/02 03:45:06;;;;;;;16.10;12.50;;;4.90;99.90;;;;;;4961245;28;20460;-79
2021/01/02 03:47:33;;;;;;;18.83;13.00;;;5.10;99.90;;;;;;4962310;28;20549;-80
2021/01/02 03:49:59;;;;;;;21.30;13.60;;;5.20;99.90;;;;;;4960414;28;20478;-78
2021/01/02 03:55:17;;;;;;;21.43;13.57;;;5.10;99.90;;;;;;1302890;26;20542;-79
2021/01/02 03:58:12;;;;;;;21.90;13.90;;;5.10;99.90;;;;;;4972552;28;20469;-81
2021/01/02 04:01:13;;;;;;;22.57;13.27;;;5.00;99.90;;;;;;4972594;28;21011;-80
2021/01/02 04:04:04;;;;;;;24.13;13.80;;;5.00;99.90;;;;;;4959713;28;20869;-78
2021/01/02 04:06:30;;;;;;;20.90;12.07;;;4.90;99.90;;;;;;4958570;28;20487;-80
2021/01/02 04:09:01;;;;;;;21.10;13.63;;;5.00;99.90;;;;;;4958020;28;20444;-78
2021/01/02 04:11:27;;;;;;;21.40;13.73;;;4.90;99.90;;;;;;4958246;28;20568;-82
2021/01/02 04:14:39;;;;;;;17.37;12.00;;;5.00;99.90;;;;;;4958875;28;20538;-82
2021/01/02 04:17:06;;;;;;;19.47;12.07;;;5.00;99.90;;;;;;4941890;28;20844;-79
2021/01/02 04:19:32;;;;;;;18.23;13.17;;;5.20;99.90;;;;;;4972126;28;20895;-79
2021/01/02 04:23:10;;;;;;;20.47;13.63;;;5.10;99.90;;;;;;4961602;28;21575;-78
2021/01/02 04:26:36;;;;;;;21.17;13.60;;;5.00;99.90;;;;;;4875701;29;20436;-77
2021/01/02 04:32:54;;;;;;;21.80;12.70;;;5.20;99.90;;;;;;4873689;29;20504;-80
2021/01/02 04:35:33;;;;;;;16.63;12.13;;;5.10;99.90;;;;;;4871287;29;20495;-81
2021/01/02 04:38:20;;;;;;;21.17;13.83;;;5.10;99.90;;;;;;4875433;29;20567;-81
2021/01/02 04:41:33;;;;;;;20.17;13.40;;;5.10;99.90;;;;;;4873961;29;21064;-81
2021/01/02 04:48:27;;;;;;;;;;;;;;;;;;;;;
2021/01/02 05:13:12;;;;;;;22.83;11.93;;;4.90;99.90;;;;;;4865882;29;20483;-80
2021/01/02 05:16:16;;;;;;;20.27;12.77;;;4.90;99.90;;;;;;4918128;29;20458;-80
2021/01/02 05:23:15;;;;;;;20.67;12.70;;;4.80;99.90;;;;;;4985955;28;20972;-80
2021/01/02 05:26:55;;;;;;;19.03;11.30;;;4.80;99.90;;;;;;4944872;29;20428;-79
2021/01/02 05:30:47;;;;;;;17.30;11.80;;;4.90;99.90;;;;;;4881439;29;20476;-79
2021/01/02 05:49:27;;;;;;;;;;;;;;;;;;;;;
2021/01/02 06:10:22;;;;;;;;;;;;;;;;;;;;;
2021/01/02 06:12:58;;;;;;;17.50;11.77;;;5.00;99.90;;;;;;4970295;28;20627;-81
2021/01/02 06:15:24;;;;;;;19.83;11.93;;;5.00;99.90;;;;;;4969931;28;20540;-78
2021/01/02 06:17:51;;;;;;;20.83;12.00;;;5.00;99.90;;;;;;4968261;28;20495;-80
2021/01/02 06:20:17;;;;;;;16.67;11.33;;;4.80;99.90;;;;;;4970882;28;21030;-80
2021/01/02 06:22:44;;;;;;;17.80;11.40;;;4.70;99.90;;;;;;4969023;28;20484;-79
2021/01/02 06:25:13;;;;;;;16.70;11.97;;;4.60;99.90;;;;;;4971147;28;20960;-78
2021/01/02 06:27:41;;;;;;;17.73;12.27;;;4.60;99.90;;;;;;4972841;28;20486;-79
2021/01/02 06:30:08;;;;;;;20.03;13.17;;;4.80;99.90;;;;;;4971666;28;20436;-80
2021/01/02 06:32:43;;;;;;;17.70;11.20;;;5.10;99.90;;;;;;4970005;28;20494;-79
2021/01/02 06:35:09;;;;;;;19.73;12.40;;;5.30;99.90;;;;;;4972829;28;20450;-78
2021/01/02 06:37:47;;;;;;;23.03;14.40;;;5.30;99.90;;;;;;4976634;28;20467;-78
2021/01/02 06:40:20;;;;;;;20.77;12.53;;;5.10;99.90;;;;;;4972067;28;20495;-79
2021/01/02 06:43:00;;;;;;;21.83;12.80;;;5.00;99.90;;;;;;4972709;28;20484;-78
2021/01/02 06:45:38;;;;;;;21.80;11.40;;;5.10;99.90;;;;;;4976809;28;20455;-78
2021/01/02 06:48:16;;;;;;;19.67;12.67;;;5.00;99.90;;;;;;4973621;28;20480;-79
2021/01/02 06:50:47;;;;;;;20.80;14.50;;;5.00;99.90;;;;;;4971543;28;20551;-81
2021/01/02 06:53:30;;;;;;;21.20;13.77;;;5.00;99.90;;;;;;4969883;28;20510;-81
2021/01/02 06:56:30;;;;;;;19.80;12.00;;;5.00;99.90;;;;;;4968903;28;20464;-81
2021/01/02 06:58:56;;;;;;;16.63;11.90;;;5.00;99.90;;;;;;4959245;28;20834;-81
2021/01/02 07:01:22;;;;;;;17.87;12.00;;;5.10;99.90;;;;;;4968786;28;20514;-79
2021/01/02 07:03:50;;;;;;;17.27;11.63;;;5.00;99.90;;;;;;4967317;28;20502;-78
2021/01/02 07:06:22;;;;;;;18.47;11.40;;;4.90;99.90;;;;;;4966843;28;20539;-78
2021/01/02 07:08:59;;;;;;;19.77;12.70;;;5.00;99.90;;;;;;4970106;28;20456;-79
2021/01/02 07:11:40;;;;;;;21.33;12.30;;;5.10;99.90;;;;;;4968996;28;20509;-81
2021/01/02 07:14:09;;;;;;;21.90;12.67;;;5.10;99.90;;;;;;4970302;28;20466;-80
2021/01/02 07:16:47;;;;;;;22.37;13.67;;;5.10;99.90;;;;;;4970801;28;20444;-78
2021/01/02 07:19:37;;;;;;;20.60;13.70;;;5.10;99.90;;;;;;4970338;28;20447;-82
2021/01/02 07:22:19;;;;;;;23.20;13.57;;;5.00;99.90;;;;;;4972619;28;20476;-80
2021/01/02 07:25:01;;;;;;;26.67;13.67;;;4.90;99.90;;;;;;4971133;28;20879;-80
2021/01/02 07:27:30;;;;;;;19.50;12.30;;;4.70;99.90;;;;;;4969137;28;20708;-79
2021/01/02 07:30:02;;;;;;;21.13;12.90;;;4.80;99.90;;;;;;4970981;28;20635;-81
2021/01/02 07:32:31;;;;;;;15.80;11.67;;;4.70;99.90;;;;;;4981181;28;20470;-80
2021/01/02 07:35:09;;;;;;;22.33;12.93;;;4.60;99.90;;;;;;5013568;28;20503;-79
2021/01/02 07:37:38;;;;;;;19.63;14.10;;;4.70;99.90;;;;;;4985574;28;20480;-79
2021/01/02 07:40:16;;;;;;;22.97;12.10;;;4.70;99.90;;;;;;4985277;28;20460;-78
2021/01/02 07:42:53;;;;;;;21.00;12.30;;;4.90;99.90;;;;;;4983837;28;20493;-78
2021/01/02 07:45:21;;;;;;;26.47;13.87;;;5.00;99.90;;;;;;4981211;28;21254;-80
2021/01/02 07:47:55;;;;;;;21.73;12.20;;;5.10;99.90;;;;;;4984873;28;20535;-79
2021/01/02 07:50:23;;;;;;;22.33;14.33;;;5.10;99.90;;;;;;5015976;28;20483;-79
2021/01/02 07:52:51;;;;;;;21.90;13.53;;;5.00;99.90;;;;;;4985372;28;20486;-78
2021/01/02 07:55:24;;;;;;;23.47;14.00;;;5.00;99.90;;;;;;4985985;28;20514;-77
2021/01/02 07:57:51;;;;;;;20.87;12.70;;;4.90;99.90;;;;;;4982006;28;20452;-78
2021/01/02 08:00:18;;;;;;;22.73;13.83;;;5.00;99.90;;;;;;4970162;28;20464;-80
2021/01/02 08:02:44;;;;;;;23.50;14.60;;;5.20;99.90;;;;;;4969118;28;20573;-80
2021/01/02 08:05:13;;;;;;;23.57;14.30;;;5.20;99.90;;;;;;4970877;28;20882;-79
2021/01/02 08:07:41;;;;;;;24.70;14.17;;;5.10;99.90;;;;;;4971041;28;20487;-79
2021/01/02 08:10:16;;;;;;;26.33;14.80;;;5.20;99.90;;;;;;4974306;28;20455;-77
2021/01/02 08:12:50;;;;;;;20.83;13.37;;;5.10;99.90;;;;;;4975361;28;20475;-82
2021/01/02 08:15:27;;;;;;;26.43;15.43;;;5.00;99.90;;;;;;4973688;28;20460;-81
2021/01/02 08:17:53;;;;;;;22.30;14.10;;;5.10;99.90;;;;;;4972426;28;20458;-80
2021/01/02 08:20:19;;;;;;;23.80;13.87;;;4.80;99.90;;;;;;4971988;28;20471;-79
2021/01/02 08:22:45;;;;;;;20.73;12.97;;;4.60;99.90;;;;;;4970475;28;20483;-80
2021/01/02 08:25:16;;;;;;;20.63;12.13;;;4.70;99.90;;;;;;4971259;28;20460;-78
2021/01/02 08:27:44;;;;;;;24.77;13.73;;;4.80;99.90;;;;;;4970275;28;20503;-77
2021/01/02 08:30:12;;;;;;;27.50;14.53;;;5.00;99.90;;;;;;4970681;28;20511;-80
2021/01/02 08:32:43;;;;;;;25.33;15.20;;;5.00;99.90;;;;;;4968445;28;20486;-80
2021/01/02 08:35:17;;;;;;;24.67;14.57;;;5.00;99.90;;;;;;4968045;28;20488;-80
2021/01/02 08:37:45;;;;;;;21.07;13.77;;;5.10;99.90;;;;;;4969025;28;20573;-82
2021/01/02 08:40:13;;;;;;;21.57;13.63;;;5.00;99.90;;;;;;4970715;28;20460;-82
2021/01/02 08:42:41;;;;;;;20.00;13.77;;;4.80;99.90;;;;;;4969625;28;20982;-82
2021/01/02 08:45:09;;;;;;;22.50;13.33;;;4.50;99.90;;;;;;4970015;28;20513;-81
2021/01/02 08:47:37;;;;;;;19.97;13.00;;;4.60;99.90;;;;;;4966955;28;20490;-79
2021/01/02 08:50:10;;;;;;;20.30;13.53;;;4.80;99.90;;;;;;4967812;28;20452;-78
2021/01/02 08:52:37;;;;;;;22.63;14.40;;;4.70;99.90;;;;;;4966675;28;20472;-78
2021/01/02 08:55:12;;;;;;;22.10;13.50;;;4.90;99.90;;;;;;4967100;28;20947;-80
2021/01/02 08:57:49;;;;;;;23.97;13.97;;;4.80;99.90;;;;;;4965120;28;20517;-80
2021/01/02 09:00:31;;;;;;;18.63;13.23;;;4.90;99.90;;;;;;4996701;28;20514;-80
2021/01/02 09:03:07;;;;;;;26.47;15.40;;;5.10;99.90;;;;;;4964003;28;20484;-78
2021/01/02 09:05:35;;;;;;;24.80;14.30;;;4.90;99.90;;;;;;4966007;28;20467;-79
2021/01/02 09:08:17;;;;;;;24.07;15.33;;;4.70;99.90;;;;;;4970502;28;20487;-79
2021/01/02 09:10:45;;;;;;;24.00;15.53;;;4.70;99.90;;;;;;4972561;28;20479;-80
2021/01/02 09:13:24;;;;;;;25.47;18.17;;;4.70;99.90;;;;;;4971316;28;20487;-80
2021/01/02 09:16:13;;;;;;;30.90;18.40;;;4.70;99.90;;;;;;4968083;28;20924;-81
2021/01/02 09:18:41;;;;;;;26.50;18.70;;;5.00;99.90;;;;;;4971976;28;20948;-79
2021/01/02 09:21:11;;;;;;;29.30;17.90;;;5.20;99.90;;;;;;4972499;28;20479;-79
2021/01/02 09:23:54;;;;;;;29.20;17.73;;;5.20;99.90;;;;;;4972477;28;20482;-79
2021/01/02 09:26:23;;;;;;;27.43;19.83;;;5.10;99.90;;;;;;4972946;28;20460;-77
2021/01/02 09:28:53;;;;;;;26.37;17.80;;;5.00;99.90;;;;;;4973115;28;20479;-80
2021/01/02 09:31:20;;;;;;;31.40;20.60;;;5.10;99.90;;;;;;4974186;28;20468;-79
2021/01/02 09:33:48;;;;;;;32.00;22.67;;;5.20;99.90;;;;;;4971744;28;20701;-79
2021/01/02 09:36:15;;;;;;;27.27;19.27;;;5.30;99.90;;;;;;4970110;28;20519;-82
2021/01/02 09:38:43;;;;;;;29.67;20.23;;;5.20;99.90;;;;;;4966590;28;20464;-81
2021/01/02 09:41:12;;;;;;;26.73;18.33;;;5.20;99.90;;;;;;4998537;28;20467;-82
2021/01/02 09:43:38;;;;;;;25.73;16.57;;;5.40;99.90;;;;;;4967836;28;20697;-79
2021/01/02 09:46:12;;;;;;;20.90;15.97;;;5.60;99.90;;;;;;4965059;28;20470;-79
2021/01/02 09:48:41;;;;;;;28.30;18.33;;;5.60;99.90;;;;;;4968940;28;20494;-79
2021/01/02 09:51:07;;;;;;;21.90;14.80;;;5.60;99.90;;;;;;4968749;28;20490;-80
2021/01/02 09:53:33;;;;;;;23.27;17.00;;;5.60;99.90;;;;;;4964596;28;20476;-80
2021/01/02 09:56:00;;;;;;;26.83;16.40;;;5.70;99.90;;;;;;4965247;28;20452;-81
2021/01/02 09:58:26;;;;;;;27.63;18.00;;;5.60;99.90;;;;;;4965502;28;20483;-81
2021/01/02 10:00:55;;;;;;;32.70;18.70;;;5.50;99.90;;;;;;4967460;28;20460;-79
2021/01/02 10:03:21;;;;;;;25.30;16.90;;;5.60;99.90;;;;;;4969259;28;20477;-81
2021/01/02 10:05:47;;;;;;;27.43;19.80;;;5.60;99.90;;;;;;4971071;28;20488;-80
2021/01/02 10:08:14;;;;;;;28.40;18.43;;;5.70;99.90;;;;;;4973315;28;20494;-80
2021/01/02 10:10:40;;;;;;;29.93;19.10;;;5.70;99.90;;;;;;4972712;28;20459;-82
2021/01/02 10:13:06;;;;;;;27.40;17.80;;;5.70;99.90;;;;;;4969082;28;20471;-81
2021/01/02 10:15:33;;;;;;;23.70;16.97;;;5.60;99.90;;;;;;4970421;28;20459;-81
2021/01/02 10:17:59;;;;;;;27.80;18.80;;;5.60;99.90;;;;;;4969447;28;20480;-79
2021/01/02 10:20:25;;;;;;;29.90;18.10;;;5.80;99.90;;;;;;4969965;28;20456;-81
2021/01/02 10:22:52;;;;;;;28.40;18.50;;;5.90;99.90;;;;;;4969668;28;20483;-81
2021/01/02 10:25:18;;;;;;;29.13;19.33;;;5.80;99.90;;;;;;4969888;28;20490;-79
2021/01/02 10:27:44;;;;;;;28.00;19.40;;;5.90;99.90;;;;;;4969749;28;20963;-79
2021/01/02 10:30:13;;;;;;;20.90;16.40;;;6.00;99.90;;;;;;4969967;28;20528;-81
2021/01/02 10:32:39;;;;;;;24.53;16.70;;;6.10;99.90;;;;;;4970555;28;20510;-80
2021/01/02 10:35:08;;;;;;;23.60;15.70;;;6.30;99.90;;;;;;4968494;28;20519;-79
2021/01/02 10:37:34;;;;;;;23.00;16.23;;;6.30;99.90;;;;;;4969410;28;20837;-81
2021/01/02 10:40:01;;;;;;;24.33;16.00;;;6.40;99.90;;;;;;4970382;28;20444;-78
2021/01/02 10:42:29;;;;;;;23.50;16.63;;;6.40;99.90;;;;;;4968030;28;20511;-80
2021/01/02 10:44:56;;;;;;;23.87;16.07;;;6.30;99.90;;;;;;4968520;28;20459;-80
2021/01/02 10:47:25;;;;;;;18.80;14.70;;;6.30;99.90;;;;;;4969986;28;20483;-82
2021/01/02 10:49:51;;;;;;;23.10;15.07;;;6.10;99.90;;;;;;4968355;28;20462;-80
2021/01/02 10:52:20;;;;;;;27.90;17.80;;;6.20;99.90;;;;;;4967771;28;20572;-80
2021/01/02 10:54:47;;;;;;;25.87;18.10;;;6.20;99.90;;;;;;4968786;28;20468;-78
2021/01/02 10:57:15;;;;;;;25.60;17.70;;;6.40;99.90;;;;;;4970657;28;20852;-79
2021/01/02 10:59:47;;;;;;;22.10;15.07;;;6.30;99.90;;;;;;4968793;28;20532;-79
2021/01/02 11:02:15;;;;;;;25.80;17.63;;;6.40;99.90;;;;;;4968944;28;20475;-79
2021/01/02 11:04:41;;;;;;;22.30;14.87;;;6.30;99.90;;;;;;4966803;28;20468;-79
2021/01/02 11:07:09;;;;;;;19.50;13.20;;;6.30;99.90;;;;;;4964745;28;20502;-80
2021/01/02 11:09:36;;;;;;;22.53;14.23;;;6.40;99.90;;;;;;4968775;28;20452;-79
2021/01/02 11:12:03;;;;;;;23.30;15.23;;;6.30;99.90;;;;;;4969987;28;21010;-80
2021/01/02 11:14:29;;;;;;;22.67;14.87;;;6.30;99.90;;;;;;4969336;28;20460;-79
2021/01/02 11:16:56;;;;;;;19.53;13.30;;;6.30;99.90;;;;;;4967728;28;20467;-79
2021/01/02 11:19:26;;;;;;;21.57;14.27;;;6.00;99.90;;;;;;4969028;28;20456;-82
2021/01/02 11:21:57;;;;;;;19.60;13.57;;;6.30;99.90;;;;;;5001458;28;20455;-83
2021/01/02 11:24:25;;;;;;;20.60;13.40;;;6.40;99.90;;;;;;4969141;28;20467;-79
2021/01/02 11:26:56;;;;;;;21.00;13.10;;;6.40;99.90;;;;;;4968991;28;20464;-81
2021/01/02 11:29:24;;;;;;;18.07;11.50;;;6.30;99.90;;;;;;4974481;28;20527;-80
2021/01/02 11:31:51;;;;;;;18.63;12.40;;;6.50;99.90;;;;;;4977912;28;20448;-78
2021/01/02 11:34:24;;;;;;;19.80;13.40;;;6.60;99.90;;;;;;4974927;28;20464;-82
2021/01/02 11:36:56;;;;;;;18.47;13.37;;;6.80;99.90;;;;;;4971994;28;20452;-80
2021/01/02 11:39:23;;;;;;;19.00;12.33;;;6.80;99.90;;;;;;4968478;28;20998;-79
2021/01/02 11:41:49;;;;;;;20.43;13.60;;;6.80;99.90;;;;;;4967845;28;20464;-79
2021/01/02 11:44:18;;;;;;;18.40;12.60;;;6.90;99.90;;;;;;4969152;28;21006;-81
2021/01/02 11:46:48;;;;;;;20.23;14.60;;;6.80;99.90;;;;;;4969442;28;20574;-80
2021/01/02 11:49:19;;;;;;;19.50;14.20;;;6.70;99.90;;;;;;4968389;28;20462;-81
2021/01/02 11:51:56;;;;;;;21.27;13.90;;;6.70;99.90;;;;;;4971369;28;20689;-80
2021/01/02 11:54:24;;;;;;;20.27;13.07;;;6.60;99.90;;;;;;4972817;28;20501;-78
2021/01/02 11:56:50;;;;;;;21.43;13.57;;;6.60;99.90;;;;;;4971867;28;20452;-79
2021/01/02 11:59:18;;;;;;;21.90;15.03;;;6.50;99.90;;;;;;4971454;28;20452;-78
2021/01/02 12:01:56;;;;;;;20.43;13.70;;;6.60;99.90;;;;;;5001243;28;20455;-79
2021/01/02 12:04:25;;;;;;;20.50;13.90;;;6.50;99.90;;;;;;4968582;28;21080;-81
2021/01/02 12:06:52;;;;;;;21.17;13.50;;;6.30;99.90;;;;;;5000805;28;20464;-79
2021/01/02 12:09:20;;;;;;;19.60;13.23;;;6.50;99.90;;;;;;4969084;28;20467;-78
2021/01/02 12:11:48;;;;;;;15.33;12.73;;;6.60;99.90;;;;;;4967846;28;20970;-79
2021/01/02 12:14:17;;;;;;;15.53;12.67;;;6.80;99.90;;;;;;4968753;28;20448;-80
2021/01/02 12:16:46;;;;;;;19.03;12.87;;;6.80;99.90;;;;;;4970111;28;20465;-81
2021/01/02 12:19:19;;;;;;;18.00;12.93;;;6.90;99.90;;;;;;4968366;28;20919;-80
2021/01/02 12:21:46;;;;;;;19.47;12.83;;;6.90;99.90;;;;;;4970611;28;20471;-79
2021/01/02 12:24:12;;;;;;;18.23;13.10;;;6.80;99.90;;;;;;4968809;28;20463;-79
2021/01/02 12:26:46;;;;;;;20.60;14.70;;;6.80;99.90;;;;;;4970740;28;20458;-78
2021/01/02 12:29:15;;;;;;;21.40;14.30;;;6.70;99.90;;;;;;4972787;28;20486;-78
2021/01/02 12:31:50;;;;;;;20.57;14.47;;;6.80;99.90;;;;;;4973406;28;20547;-79
2021/01/02 12:34:19;;;;;;;21.83;14.43;;;6.80;99.90;;;;;;4970457;28;20467;-81
2021/01/02 12:36:45;;;;;;;22.70;15.10;;;6.90;99.90;;;;;;4968253;28;20531;-79
2021/01/02 12:39:15;;;;;;;18.20;14.17;;;6.90;99.90;;;;;;4971327;28;21176;-78
2021/01/02 12:41:42;;;;;;;18.53;14.30;;;6.80;99.90;;;;;;4976981;28;20528;-79
2021/01/02 12:44:09;;;;;;;22.70;14.40;;;6.70;99.90;;;;;;4976144;28;20448;-78
2021/01/02 12:46:41;;;;;;;20.10;13.80;;;6.70;99.90;;;;;;4975873;28;20464;-79
2021/01/02 12:49:09;;;;;;;20.97;14.27;;;7.00;99.90;;;;;;4977324;28;20480;-79
2021/01/02 12:51:35;;;;;;;20.00;14.30;;;7.00;99.90;;;;;;4966985;28;20455;-81
2021/01/02 12:54:03;;;;;;;17.63;12.60;;;6.80;99.90;;;;;;4966694;28;20464;-79
2021/01/02 12:56:29;;;;;;;19.60;13.50;;;6.40;99.90;;;;;;4966006;28;20555;-79
2021/01/02 12:58:59;;;;;;;20.70;12.90;;;6.40;99.90;;;;;;4967806;28;20468;-79
2021/01/02 13:01:25;;;;;;;19.53;14.30;;;6.70;99.90;;;;;;4970642;28;20463;-81
2021/01/02 13:03:51;;;;;;;20.87;13.50;;;6.70;99.90;;;;;;4968222;28;20502;-82
2021/01/02 13:06:19;;;;;;;19.70;13.80;;;6.80;99.90;;;;;;4965571;28;20464;-79
2021/01/02 13:08:45;;;;;;;20.33;13.60;;;6.80;99.90;;;;;;4963839;28;20494;-81
2021/01/02 13:11:13;;;;;;;18.00;14.20;;;6.80;99.90;;;;;;4973220;28;20460;-82
2021/01/02 13:13:40;;;;;;;22.70;14.67;;;6.70;99.90;;;;;;5001968;28;20484;-80
2021/01/02 13:16:11;;;;;;;19.47;13.70;;;6.80;99.90;;;;;;4969825;28;20499;-81
2021/01/02 13:18:37;;;;;;;20.70;15.23;;;6.80;99.90;;;;;;4968833;28;20470;-80
2021/01/02 13:21:06;;;;;;;26.43;15.60;;;6.70;99.90;;;;;;4969918;28;20478;-79
2021/01/02 13:23:32;;;;;;;23.60;16.30;;;6.70;99.90;;;;;;4970830;28;21096;-80
2021/01/02 13:26:01;;;;;;;21.93;14.10;;;6.90;99.90;;;;;;4967972;28;20632;-79
2021/01/02 13:28:27;;;;;;;24.70;16.03;;;6.80;99.90;;;;;;4972719;28;20495;-80
2021/01/02 13:30:54;;;;;;;20.53;14.50;;;6.70;99.90;;;;;;4969842;28;20524;-80
2021/01/02 13:33:20;;;;;;;22.97;15.07;;;6.40;99.90;;;;;;4967175;28;20563;-81
2021/01/02 13:35:47;;;;;;;18.33;14.00;;;6.40;99.90;;;;;;4967472;28;20452;-82
2021/01/02 13:38:13;;;;;;;22.47;14.67;;;6.40;99.90;;;;;;4967590;28;20532;-79
2021/01/02 13:40:39;;;;;;;20.20;13.87;;;6.50;99.90;;;;;;4966743;28;20819;-80
2021/01/02 13:43:05;;;;;;;14.70;11.60;;;6.40;99.90;;;;;;4966780;28;20484;-76
2021/01/02 13:45:32;;;;;;;18.97;12.70;;;6.40;99.90;;;;;;4966521;28;20464;-80
2021/01/02 13:47:58;;;;;;;18.60;13.23;;;6.50;99.90;;;;;;4968273;28;20502;-81
2021/01/02 13:50:24;;;;;;;16.47;12.90;;;6.30;99.90;;;;;;4969587;28;20512;-81
2021/01/02 13:52:52;;;;;;;16.30;10.63;;;6.60;99.90;;;;;;4967032;28;20468;-80
2021/01/02 13:55:18;;;;;;;17.00;11.80;;;6.60;99.90;;;;;;4966084;28;20460;-79
2021/01/02 13:57:44;;;;;;;18.10;11.70;;;6.50;99.90;;;;;;4965835;28;20455;-81
2021/01/02 14:00:11;;;;;;;19.70;13.00;;;6.60;99.90;;;;;;4964491;28;20925;-79
2021/01/02 14:02:37;;;;;;;22.07;13.80;;;6.70;99.90;;;;;;4968444;28;20487;-82
2021/01/02 14:05:04;;;;;;;15.10;11.60;;;6.60;99.90;;;;;;4969070;28;20456;-79
2021/01/02 14:07:46;;;;;;;18.60;13.43;;;6.50;99.90;;;;;;4978254;28;20456;-79
2021/01/02 14:10:15;;;;;;;19.00;13.23;;;6.50;99.90;;;;;;4957834;28;20905;-79
2021/01/02 14:12:42;;;;;;;19.70;13.03;;;6.40;99.90;;;;;;4968385;28;20480;-80
2021/01/02 14:15:08;;;;;;;17.53;13.10;;;6.30;99.90;;;;;;4965037;28;20444;-78
2021/01/02 14:17:35;;;;;;;21.10;12.57;;;6.10;99.90;;;;;;4968192;28;20468;-81
2021/01/02 14:20:01;;;;;;;19.77;12.83;;;6.30;99.90;;;;;;4966457;28;20466;-79
2021/01/02 14:22:27;;;;;;;19.87;13.73;;;6.40;99.90;;;;;;4967673;28;20533;-78